Terminal Aerodrome Forecast
Issued by NWS

Home | Current Version | Previous Version | Text Only | Print | Product List | Glossary Off
Versions: 1 2 3 4 5 6 7 8 9 10 11 12 13 14 15 16 17

000
FTUS43 KICT 251632 AAB
TAFRSL
TAF AMD
KRSL 251632Z 2517/2612 01015KT P6SM OVC100
     FM251730 03016G23KT P6SM OVC100
     FM251900 02022G32KT P6SM SCT050 OVC100
     FM252100 02022G32KT 6SM -RA SCT015 OVC025
     FM260200 36010KT P6SM SCT025 BKN100=

USA.gov is the U.S. government's official web portal to all federal, state and local government web resources and services.